Melrose, Pennsylvania
Current Conditions -  °F | °C
As of 9:54 AM on Wednesday 22 Oct 2014 (Local Time) from KPNE Reporting Station
Light Rain Light Rain  
Wind Chill: 57°   Ceiling: 1300
Heat Index: 57°   Visibility: 10mi
Dew Point: 51°   Wind: 17mph
Humidity: 81%   Direction: 20°NNE
Pressure: 29.91"   Gusts: NA
Location:  40.0732°N, 75.1248°W
Report Text: KPNE 221354Z 02015KT 10SM -RA BKN013 OVC050 14/11 A2991 RMK AO2 SLP127 P0001 T01390106 $
Loading
Personal Weather Stations






























Interactive Weather Map
Tropical Storm Tracking
New forecast layout! Learn more

10-Day Weather Forecast

Advertisements
Track Severe Weather on mobile